Terminal Aerodrome Forecast
Issued by NWS

Current Version | Previous Version | Text Only | Print | Product List | Glossary On
Versions: 1 2 3 4 5 6 7 8 9 10 11 12 13 14 15 16 17 18 19 20 21 22 23 24 25 26 27 28 29 30 31 32 33 34 35 36 37 38 39 40 41 42 43
000 FTUS41 KBOX 240217 AAB TAFACK TAF AMD KACK 240217Z 2402/2424 21009KT P6SM SCT250 FM240300 30010KT 6SM BR BKN003 FM240600 27005KT 1/2SM -DZ FG VV002 FM241300 29007KT 6SM -RA BR OVC015 FM241700 32007KT P6SM OVC025=

USA.gov is the U.S. government's official web portal to all federal, state and local government web resources and services.